createdAt,value
2023-01-01T00:00:46.161Z,8.03
2023-01-01T00:03:13.906Z,7.67
2023-01-01T00:05:43.236Z,7.90
2023-01-01T00:08:10.912Z,7.13
2023-01-01T00:10:38.807Z,8.02
2023-01-01T00:13:06.409Z,8.22
2023-01-01T00:15:34.314Z,8.25
2023-01-01T00:18:02.109Z,8.14
2023-01-01T00:20:34.926Z,8.25
2023-01-01T00:23:04.413Z,8.29
2023-01-01T00:25:32.648Z,7.44
2023-01-01T00:28:00.468Z,8.14
2023-01-01T00:30:28.270Z,7.97
2023-01-01T00:32:56.463Z,8.10
2023-01-01T00:35:25.292Z,8.06
2023-01-01T00:37:53.923Z,8.15
2023-01-01T00:40:23.076Z,7.87
2023-01-01T00:42:51.036Z,8.31
2023-01-01T00:45:21.823Z,8.38
2023-01-01T00:47:50.886Z,8.30
2023-01-01T00:50:18.835Z,8.43
2023-01-01T00:52:46.924Z,8.59
2023-01-01T00:55:14.712Z,7.77
2023-01-01T00:57:43.712Z,8.31
2023-01-01T01:00:13.024Z,8.70
2023-01-01T01:02:41.113Z,8.67
2023-01-01T01:05:10.003Z,7.75
2023-01-01T01:07:38.610Z,8.65
2023-01-01T01:10:07.641Z,8.31
2023-01-01T01:12:35.861Z,8.45
2023-01-01T01:15:06.603Z,8.51
2023-01-01T01:17:34.341Z,8.60
2023-01-01T01:20:02.159Z,8.42
2023-01-01T01:22:29.984Z,8.34
2023-01-01T01:24:58.073Z,8.65
2023-01-01T01:27:25.850Z,8.78
2023-01-01T01:29:53.536Z,8.90
2023-01-01T01:32:22.601Z,8.81
2023-01-01T01:34:50.672Z,8.97
2023-01-01T01:37:18.408Z,9.14
2023-01-01T01:39:51.690Z,9.12
2023-01-01T01:42:23.067Z,9.13
2023-01-01T01:44:57.684Z,8.90
2023-01-01T01:47:32.138Z,9.22
2023-01-01T01:50:04.849Z,9.30
2023-01-01T01:52:35.796Z,8.48
2023-01-01T01:55:06.265Z,8.32
2023-01-01T01:57:34.847Z,8.06
2023-01-01T02:00:10.620Z,8.16
2023-01-01T02:02:49.263Z,8.00
2023-01-01T02:05:18.499Z,7.99
2023-01-01T02:07:46.642Z,7.73
2023-01-01T02:10:14.751Z,8.08
2023-01-01T02:12:42.473Z,7.80
2023-01-01T02:15:10.924Z,7.70
2023-01-01T02:17:47.264Z,7.58
2023-01-01T02:20:26.930Z,7.06
2023-01-01T02:23:16.729Z,7.59
2023-01-01T02:26:02.171Z,7.27
2023-01-01T02:28:55.116Z,7.38
2023-01-01T02:31:27.585Z,7.24
2023-01-01T02:34:00.300Z,7.23
2023-01-01T02:36:32.449Z,7.07
2023-01-01T02:39:03.008Z,7.29
2023-01-01T02:41:35.207Z,7.07
2023-01-01T02:46:33.404Z,6.91
2023-01-01T02:49:07.905Z,7.03
2023-01-01T02:51:51.651Z,7.07
2023-01-01T02:54:30.106Z,6.97
2023-01-01T02:57:07.016Z,6.28
2023-01-01T03:00:07.950Z,7.03
2023-01-01T03:02:48.693Z,7.04
2023-01-01T03:05:25.665Z,7.18
2023-01-01T03:08:05.468Z,7.24
2023-01-01T03:10:42.188Z,7.30
2023-01-01T03:13:16.819Z,7.30
2023-01-01T03:15:57.741Z,7.40
2023-01-01T03:18:29.198Z,6.87
2023-01-01T03:20:59.912Z,7.61
2023-01-01T03:23:32.577Z,7.47
2023-01-01T03:26:06.992Z,7.39
2023-01-01T03:28:37.691Z,7.52
2023-01-01T03:31:07.713Z,6.71
2023-01-01T03:33:40.041Z,6.90
2023-01-01T03:36:11.446Z,7.28
2023-01-01T03:38:45.061Z,7.17
2023-01-01T03:41:16.760Z,7.03
2023-01-01T03:43:50.759Z,6.63
2023-01-01T03:46:25.088Z,6.84
2023-01-01T03:49:03.805Z,6.82
2023-01-01T03:51:55.520Z,6.88
2023-01-01T03:54:34.148Z,6.69
2023-01-01T03:57:10.133Z,6.81
2023-01-01T03:59:44.907Z,6.67
2023-01-01T04:02:20.042Z,6.59
2023-01-01T04:04:48.391Z,6.36
2023-01-01T04:07:16.346Z,6.71
2023-01-01T04:09:49.959Z,6.61
2023-01-01T04:12:19.369Z,6.19
2023-01-01T04:14:47.066Z,6.18
2023-01-01T04:17:16.063Z,6.86
2023-01-01T04:19:43.730Z,6.43
2023-01-01T04:22:11.515Z,6.77
2023-01-01T04:24:39.302Z,7.47
2023-01-01T04:27:07.065Z,7.55
2023-01-01T04:29:35.753Z,7.54
2023-01-01T04:32:04.152Z,7.59
2023-01-01T04:34:33.118Z,7.72
2023-01-01T04:37:00.777Z,7.73
2023-01-01T04:39:28.405Z,7.47
2023-01-01T04:41:55.983Z,7.41
2023-01-01T04:44:23.603Z,7.72
2023-01-01T04:46:56.842Z,7.60
2023-01-01T04:49:27.612Z,7.91
2023-01-01T04:51:57.254Z,7.93
2023-01-01T04:54:24.887Z,7.76
2023-01-01T04:56:52.556Z,7.25
2023-01-01T04:59:20.194Z,7.97
2023-01-01T05:01:48.082Z,8.07
2023-01-01T05:04:17.218Z,8.04
2023-01-01T05:06:45.304Z,8.06
2023-01-01T05:09:14.621Z,8.01
2023-01-01T05:11:42.371Z,7.39
2023-01-01T05:14:10.101Z,7.97
2023-01-01T05:16:39.475Z,8.03
2023-01-01T05:19:08.060Z,7.82
2023-01-01T05:21:37.358Z,7.71
2023-01-01T05:24:07.607Z,8.11
2023-01-01T05:26:38.440Z,8.10
2023-01-01T05:29:13.486Z,8.11
2023-01-01T05:31:43.576Z,8.00
2023-01-01T05:34:11.349Z,8.09
2023-01-01T05:36:39.468Z,8.21
2023-01-01T05:39:07.921Z,7.89
2023-01-01T05:41:37.180Z,7.92
2023-01-01T05:44:06.197Z,7.80
2023-01-01T05:46:34.259Z,7.78
2023-01-01T05:49:02.189Z,7.85
2023-01-01T05:54:00.224Z,7.17
2023-01-01T05:56:28.297Z,8.06
2023-01-01T05:58:57.776Z,8.05
2023-01-01T06:01:29.443Z,8.00
2023-01-01T06:03:59.077Z,7.94
2023-01-01T06:06:28.636Z,8.03
2023-01-01T06:08:58.643Z,8.01
2023-01-01T06:11:26.667Z,8.02
2023-01-01T06:13:55.425Z,8.04
2023-01-01T06:16:24.823Z,8.12
2023-01-01T06:18:52.754Z,8.09
2023-01-01T06:21:22.446Z,8.07
2023-01-01T06:23:50.253Z,8.15
2023-01-01T06:26:19.699Z,7.53
2023-01-01T06:28:48.421Z,8.07
2023-01-01T06:31:17.953Z,8.20
2023-01-01T06:33:47.538Z,8.31
2023-01-01T06:36:17.150Z,8.21
2023-01-01T06:38:46.618Z,8.27
2023-01-01T06:41:16.273Z,8.27
2023-01-01T06:43:44.684Z,7.83
2023-01-01T06:46:16.854Z,8.24
2023-01-01T06:48:45.610Z,8.25
2023-01-01T06:51:16.665Z,8.24
2023-01-01T06:53:44.813Z,8.12
2023-01-01T06:56:13.509Z,7.93
2023-01-01T06:58:41.117Z,7.54
2023-01-01T07:01:12.398Z,7.67
2023-01-01T07:03:41.069Z,7.42
2023-01-01T07:06:10.530Z,7.51
2023-01-01T07:08:39.550Z,7.24
2023-01-01T07:11:07.370Z,7.14
2023-01-01T07:13:35.110Z,7.13
2023-01-01T07:16:10.196Z,7.03
2023-01-01T07:18:40.269Z,6.68
2023-01-01T07:21:28.438Z,7.23
2023-01-01T07:23:58.807Z,7.09
2023-01-01T07:26:27.728Z,6.40
2023-01-01T07:28:58.396Z,5.98
2023-01-01T07:31:32.156Z,6.52
2023-01-01T07:33:59.847Z,6.39
2023-01-01T07:36:27.498Z,6.25
2023-01-01T07:38:55.842Z,6.12
2023-01-01T07:41:24.848Z,6.51
2023-01-01T07:43:52.823Z,6.40
2023-01-01T07:46:20.617Z,5.90
2023-01-01T07:48:48.241Z,6.57
2023-01-01T07:51:16.110Z,6.11
2023-01-01T07:53:43.780Z,6.73
2023-01-01T07:56:11.564Z,7.00
2023-01-01T07:58:41.715Z,7.06
2023-01-01T08:01:11.689Z,7.18
2023-01-01T08:03:39.507Z,7.30
2023-01-01T08:06:09.869Z,7.31
2023-01-01T08:08:37.634Z,7.85
2023-01-01T08:11:06.271Z,7.88
2023-01-01T08:13:33.916Z,8.24
2023-01-01T08:16:03.003Z,8.33
2023-01-01T08:18:30.859Z,8.66
2023-01-01T08:20:58.555Z,8.65
2023-01-01T08:23:26.478Z,8.96
2023-01-01T08:25:54.126Z,8.85
2023-01-01T08:28:21.743Z,8.76
2023-01-01T08:30:49.805Z,9.24
2023-01-01T08:33:18.753Z,9.18
2023-01-01T08:35:52.010Z,9.31
2023-01-01T08:38:21.635Z,9.27
2023-01-01T08:40:49.318Z,9.31
2023-01-01T08:43:17.012Z,9.27
2023-01-01T08:45:45.335Z,9.26
2023-01-01T08:48:12.994Z,9.29
2023-01-01T08:50:41.918Z,9.43
2023-01-01T08:53:10.918Z,9.48
2023-01-01T08:55:39.612Z,9.54
2023-01-01T08:58:08.288Z,9.48
2023-01-01T09:00:36.161Z,9.60
2023-01-01T09:03:04.112Z,9.60
2023-01-01T09:05:31.847Z,9.49
2023-01-01T09:08:00.809Z,9.47
2023-01-01T09:10:28.533Z,9.30
2023-01-01T09:12:56.253Z,9.34
2023-01-01T09:15:23.974Z,8.98
2023-01-01T09:17:51.634Z,9.01
2023-01-01T09:20:19.297Z,9.13
2023-01-01T09:22:46.923Z,9.06
2023-01-01T09:25:15.959Z,9.11
2023-01-01T09:27:43.642Z,9.11
2023-01-01T09:30:12.404Z,9.23
2023-01-01T09:32:40.230Z,9.23
2023-01-01T09:35:08.511Z,9.01
2023-01-01T09:37:36.485Z,9.20
2023-01-01T09:40:04.521Z,9.03
2023-01-01T09:42:40.295Z,9.25
2023-01-01T09:45:22.510Z,9.06
2023-01-01T09:47:54.218Z,9.39
2023-01-01T09:50:24.676Z,9.47
2023-01-01T09:52:56.810Z,9.58
2023-01-01T09:55:29.603Z,9.75
2023-01-01T09:57:58.895Z,9.92
2023-01-01T10:00:27.533Z,9.94
2023-01-01T10:03:05.355Z,10.17
2023-01-01T10:05:43.602Z,10.52
2023-01-01T10:08:23.702Z,10.90
2023-01-01T10:11:01.823Z,11.55
2023-01-01T10:13:38.072Z,11.90
2023-01-01T10:16:11.308Z,12.07
2023-01-01T10:18:43.550Z,11.99
2023-01-01T10:21:15.794Z,11.99
2023-01-01T10:23:47.247Z,12.91
2023-01-01T10:26:17.965Z,13.18
2023-01-01T10:28:55.807Z,13.25
2023-01-01T10:31:31.467Z,13.30
2023-01-01T10:33:59.384Z,13.27
2023-01-01T10:36:27.915Z,13.57
2023-01-01T10:38:55.573Z,13.66
2023-01-01T10:41:23.311Z,13.74
2023-01-01T10:43:55.145Z,13.11
2023-01-01T10:46:31.594Z,13.87
2023-01-01T10:49:10.877Z,14.15
2023-01-01T10:51:53.685Z,14.50
2023-01-01T10:54:33.828Z,14.48
2023-01-01T10:57:13.474Z,14.94
2023-01-01T10:59:49.857Z,13.91
2023-01-01T11:02:23.947Z,15.03
2023-01-01T11:05:20.775Z,15.26
2023-01-01T11:07:49.818Z,15.13
2023-01-01T11:10:20.368Z,15.17
2023-01-01T11:13:06.474Z,14.62
2023-01-01T11:15:42.463Z,14.73
2023-01-01T11:18:15.104Z,14.96
2023-01-01T11:20:44.407Z,15.39
2023-01-01T11:23:21.796Z,15.27
2023-01-01T11:26:00.968Z,15.59
2023-01-01T11:28:31.854Z,14.54
2023-01-01T11:31:16.781Z,15.58
2023-01-01T11:33:47.512Z,15.44
2023-01-01T11:36:22.413Z,15.44
2023-01-01T11:38:52.681Z,14.98
2023-01-01T11:41:20.430Z,15.45
2023-01-01T11:43:50.022Z,14.51
2023-01-01T11:46:24.675Z,14.49
2023-01-01T11:48:55.230Z,14.54
2023-01-01T11:51:32.009Z,15.29
2023-01-01T11:54:11.952Z,15.40
2023-01-01T11:56:40.713Z,15.14
2023-01-01T11:59:16.720Z,15.24
2023-01-01T12:01:48.712Z,15.21
2023-01-01T12:04:22.721Z,14.84
2023-01-01T12:06:55.684Z,15.41
2023-01-01T12:09:29.507Z,15.23
2023-01-01T12:12:05.099Z,14.56
2023-01-01T12:14:41.324Z,15.00
2023-01-01T12:17:17.896Z,14.94
2023-01-01T12:19:57.424Z,14.90
2023-01-01T12:22:26.947Z,14.83
2023-01-01T12:24:57.876Z,14.55
2023-01-01T12:27:38.217Z,14.59
2023-01-01T12:30:21.564Z,14.66
2023-01-01T12:33:09.376Z,14.56
2023-01-01T12:35:50.811Z,14.64
2023-01-01T12:38:33.355Z,14.59
2023-01-01T12:41:07.809Z,14.18
2023-01-01T12:43:44.272Z,14.05
2023-01-01T12:46:42.756Z,14.63
2023-01-01T12:49:36.698Z,14.55
2023-01-01T12:52:25.673Z,14.00
2023-01-01T12:55:26.319Z,14.53
2023-01-01T12:58:02.284Z,13.50
2023-01-01T13:00:31.486Z,14.01
2023-01-01T13:03:07.795Z,14.31
2023-01-01T13:05:41.281Z,13.91
2023-01-01T13:08:09.081Z,13.99
2023-01-01T13:10:43.206Z,14.02
2023-01-01T13:13:16.385Z,14.02
2023-01-01T13:15:50.254Z,13.60
2023-01-01T13:18:30.583Z,13.92
2023-01-01T13:21:03.206Z,13.82
2023-01-01T13:23:52.732Z,14.00
2023-01-01T13:26:42.034Z,13.75
2023-01-01T13:29:33.323Z,13.91
2023-01-01T13:32:07.753Z,13.28
2023-01-01T13:34:38.844Z,13.44
2023-01-01T13:37:45.068Z,13.76
2023-01-01T13:40:34.112Z,13.67
2023-01-01T13:43:20.070Z,13.26
2023-01-01T13:49:19.944Z,13.63
2023-01-01T13:52:05.806Z,13.66
2023-01-01T13:55:03.714Z,13.55
2023-01-01T13:57:49.531Z,13.45
2023-01-01T14:00:23.280Z,13.36
2023-01-01T14:02:58.853Z,13.16
2023-01-01T14:05:32.502Z,12.80
2023-01-01T14:08:00.566Z,12.50
2023-01-01T14:10:32.261Z,13.09
2023-01-01T14:13:16.352Z,13.14
2023-01-01T14:15:53.660Z,12.21
2023-01-01T14:18:25.153Z,13.11
2023-01-01T14:20:54.903Z,12.91
2023-01-01T14:23:31.739Z,12.97
2023-01-01T14:26:03.488Z,12.48
2023-01-01T14:28:33.004Z,12.48
2023-01-01T14:31:10.629Z,12.72
2023-01-01T14:33:39.434Z,12.35
2023-01-01T14:36:16.744Z,12.51
2023-01-01T14:38:46.403Z,12.09
2023-01-01T14:41:19.232Z,12.14
2023-01-01T14:43:49.023Z,11.57
2023-01-01T14:46:20.205Z,12.12
2023-01-01T14:48:51.555Z,11.85
2023-01-01T14:51:22.185Z,11.59
2023-01-01T14:53:56.868Z,11.70
2023-01-01T14:56:29.140Z,11.63
2023-01-01T14:59:06.197Z,11.40
2023-01-01T15:01:34.064Z,11.57
2023-01-01T15:04:05.780Z,11.34
2023-01-01T15:06:33.893Z,10.77
2023-01-01T15:09:01.694Z,10.46
2023-01-01T15:11:30.861Z,11.17
2023-01-01T15:14:01.350Z,10.89
2023-01-01T15:16:36.325Z,10.00
2023-01-01T15:19:18.222Z,10.08
2023-01-01T15:21:46.924Z,10.64
2023-01-01T15:24:17.152Z,9.87
2023-01-01T15:26:51.466Z,10.64
2023-01-01T15:29:27.057Z,10.06
2023-01-01T15:31:57.263Z,10.46
2023-01-01T15:34:27.731Z,10.52
2023-01-01T15:36:57.539Z,10.38
2023-01-01T15:39:26.843Z,10.12
2023-01-01T15:41:56.104Z,9.90
2023-01-01T15:44:29.789Z,10.08
2023-01-01T15:47:06.638Z,10.03
2023-01-01T15:49:34.578Z,10.04
2023-01-01T15:52:05.214Z,10.00
2023-01-01T15:54:39.810Z,8.71
2023-01-01T15:57:18.577Z,9.58
2023-01-01T15:59:47.705Z,9.80
2023-01-01T16:02:21.192Z,9.66
2023-01-01T16:04:51.082Z,8.93
2023-01-01T16:07:23.185Z,8.89
2023-01-01T16:09:57.379Z,9.56
2023-01-01T16:12:26.682Z,9.27
2023-01-01T16:14:54.401Z,8.37
2023-01-01T16:17:22.433Z,9.21
2023-01-01T16:19:54.918Z,9.33
2023-01-01T16:22:22.660Z,8.49
2023-01-01T16:24:50.340Z,9.16
2023-01-01T16:27:18.219Z,8.52
2023-01-01T16:29:54.336Z,9.08
2023-01-01T16:32:22.454Z,8.77
2023-01-01T16:34:50.136Z,8.47
2023-01-01T16:37:22.581Z,8.78
2023-01-01T16:39:50.600Z,8.93
2023-01-01T16:42:18.640Z,8.78
2023-01-01T16:44:47.662Z,8.70
2023-01-01T16:47:15.368Z,8.33
2023-01-01T16:49:44.361Z,8.85
2023-01-01T16:52:12.111Z,8.44
2023-01-01T16:54:40.227Z,8.75
2023-01-01T16:57:07.969Z,8.44
2023-01-01T16:59:35.725Z,8.64
2023-01-01T17:02:04.870Z,9.04
2023-01-01T17:04:32.640Z,9.33
2023-01-01T17:07:00.271Z,9.16
2023-01-01T17:09:28.914Z,9.34
2023-01-01T17:11:56.600Z,9.34
2023-01-01T17:14:24.455Z,9.17
2023-01-01T17:16:55.366Z,9.38
2023-01-01T17:19:24.449Z,9.88
2023-01-01T17:21:52.178Z,9.89
2023-01-01T17:24:21.472Z,9.98
2023-01-01T17:26:52.649Z,10.04
2023-01-01T17:29:20.585Z,9.77
2023-01-01T17:31:48.260Z,9.65
2023-01-01T17:34:15.944Z,9.66
2023-01-01T17:36:45.880Z,10.04
2023-01-01T17:39:15.102Z,10.24
2023-01-01T17:41:43.977Z,10.22
2023-01-01T17:44:12.140Z,10.21
2023-01-01T17:46:40.204Z,10.27
2023-01-01T17:49:09.095Z,9.82
2023-01-01T17:51:36.885Z,10.04
2023-01-01T17:54:10.185Z,10.34
2023-01-01T17:56:37.845Z,10.25
2023-01-01T17:59:05.577Z,10.08
2023-01-01T18:01:35.316Z,9.53
2023-01-01T18:04:05.149Z,10.34
2023-01-01T18:06:40.279Z,10.28
2023-01-01T18:09:13.017Z,10.12
2023-01-01T18:11:41.676Z,10.06
2023-01-01T18:14:09.824Z,9.82
2023-01-01T18:16:39.221Z,10.06
2023-01-01T18:19:07.527Z,9.98
2023-01-01T18:21:35.654Z,9.83
2023-01-01T18:24:03.688Z,10.24
2023-01-01T18:26:32.781Z,9.71
2023-01-01T18:29:02.265Z,9.88
2023-01-01T18:31:32.118Z,10.23
2023-01-01T18:34:01.477Z,10.28
2023-01-01T18:36:31.244Z,10.29
2023-01-01T18:39:01.373Z,10.32
2023-01-01T18:42:02.214Z,10.39
2023-01-01T18:44:31.711Z,9.65
2023-01-01T18:47:03.167Z,10.27
2023-01-01T18:49:31.283Z,10.30
2023-01-01T18:52:13.594Z,9.99
2023-01-01T18:54:41.754Z,9.69
2023-01-01T18:57:23.655Z,9.84
2023-01-01T18:59:56.800Z,9.32
2023-01-01T19:02:30.389Z,10.02
2023-01-01T19:05:17.461Z,9.72
2023-01-01T19:07:46.436Z,10.12
2023-01-01T19:10:14.771Z,9.91
2023-01-01T19:12:44.550Z,9.48
2023-01-01T19:15:18.108Z,9.98
2023-01-01T19:17:45.869Z,9.64
2023-01-01T19:20:19.362Z,9.79
2023-01-01T19:22:47.763Z,9.31
2023-01-01T19:25:38.191Z,10.02
2023-01-01T19:28:29.530Z,10.05
2023-01-01T19:30:57.201Z,10.12
2023-01-01T19:33:24.923Z,10.25
2023-01-01T19:35:53.197Z,9.89
2023-01-01T19:38:21.379Z,9.98
2023-01-01T19:40:49.050Z,10.05
2023-01-01T19:43:18.094Z,9.94
2023-01-01T19:45:45.782Z,9.25
2023-01-01T19:48:13.533Z,9.71
2023-01-01T19:50:41.216Z,9.75
2023-01-01T19:53:08.962Z,10.04
2023-01-01T19:55:37.449Z,9.66
2023-01-01T19:58:05.088Z,9.72
2023-01-01T20:00:34.179Z,9.72
2023-01-01T20:03:34.295Z,9.59
2023-01-01T20:05:49.597Z,9.32
2023-01-01T20:08:17.288Z,9.50
2023-01-01T20:10:44.942Z,9.05
2023-01-01T20:13:12.588Z,9.36
2023-01-01T20:15:46.544Z,9.32
2023-01-01T20:18:14.700Z,9.05
2023-01-01T20:21:03.112Z,9.20
2023-01-01T20:23:30.943Z,9.14
2023-01-01T20:25:58.633Z,8.97
2023-01-01T20:28:43.587Z,8.84
2023-01-01T20:31:12.696Z,8.92
2023-01-01T20:33:40.464Z,8.54
2023-01-01T20:36:25.890Z,8.49
2023-01-01T20:38:53.542Z,8.47
2023-01-01T20:41:25.188Z,7.72
2023-01-01T20:43:54.954Z,8.04
2023-01-01T20:46:29.827Z,8.10
2023-01-01T20:48:57.791Z,7.98
2023-01-01T20:51:25.788Z,7.31
2023-01-01T20:53:53.492Z,7.76
2023-01-01T20:56:21.208Z,7.64
2023-01-01T20:58:54.513Z,7.66
2023-01-01T21:01:25.845Z,7.02
2023-01-01T21:03:55.367Z,7.45
2023-01-01T21:06:24.665Z,7.26
2023-01-01T21:08:52.953Z,7.44
2023-01-01T21:11:20.679Z,7.32
2023-01-01T21:13:48.870Z,7.19
2023-01-01T21:16:26.125Z,6.99
2023-01-01T21:18:56.895Z,7.20
2023-01-01T21:21:26.503Z,6.40
2023-01-01T21:24:03.441Z,6.85
2023-01-01T21:26:35.909Z,7.12
2023-01-01T21:29:08.921Z,6.77
2023-01-01T21:31:39.370Z,6.88
2023-01-01T21:34:21.486Z,6.89
2023-01-01T21:36:49.182Z,6.19
2023-01-01T21:39:17.771Z,6.09
2023-01-01T21:41:45.502Z,6.12
2023-01-01T21:44:16.471Z,6.68
2023-01-01T21:46:54.293Z,6.02
2023-01-01T21:49:34.574Z,6.42
2023-01-01T21:52:03.806Z,5.85
2023-01-01T21:54:34.011Z,5.99
2023-01-01T21:57:03.257Z,6.56
2023-01-01T21:59:40.744Z,6.57
2023-01-01T22:02:33.218Z,6.24
2023-01-01T22:05:18.573Z,6.43
2023-01-01T22:08:02.856Z,6.32
2023-01-01T22:10:36.918Z,6.20
2023-01-01T22:13:15.633Z,6.28
2023-01-01T22:15:43.676Z,6.11
2023-01-01T22:18:22.916Z,5.72
2023-01-01T22:20:52.632Z,6.30
2023-01-01T22:23:31.985Z,6.07
2023-01-01T22:25:59.721Z,5.60
2023-01-01T22:28:34.245Z,6.35
2023-01-01T22:31:03.096Z,6.29
2023-01-01T22:33:37.168Z,6.17
2023-01-01T22:36:14.082Z,6.23
2023-01-01T22:38:42.066Z,5.85
2023-01-01T22:41:10.592Z,4.58
2023-01-01T22:43:42.497Z,5.65
2023-01-01T22:46:17.652Z,5.83
2023-01-01T22:48:45.451Z,5.73
2023-01-01T22:51:19.702Z,5.66
2023-01-01T22:53:49.799Z,5.87
2023-01-01T22:56:17.507Z,4.94
2023-01-01T22:58:45.318Z,5.05
2023-01-01T23:01:13.074Z,5.04
2023-01-01T23:03:40.819Z,5.62
2023-01-01T23:06:08.783Z,5.23
2023-01-01T23:08:37.936Z,5.40
2023-01-01T23:11:05.637Z,5.10
2023-01-01T23:13:50.860Z,5.22
2023-01-01T23:16:18.547Z,4.47
2023-01-01T23:18:46.235Z,4.09
2023-01-01T23:21:22.838Z,4.70
2023-01-01T23:24:26.507Z,5.13
2023-01-01T23:26:54.866Z,4.34
2023-01-01T23:29:24.125Z,4.89
2023-01-01T23:31:52.278Z,4.40
2023-01-01T23:34:20.226Z,4.74
2023-01-01T23:36:48.337Z,4.98
2023-01-01T23:39:16.023Z,4.33
2023-01-01T23:41:45.234Z,4.45
2023-01-01T23:44:12.920Z,4.21
2023-01-01T23:46:40.998Z,4.45
2023-01-01T23:49:09.542Z,4.41
2023-01-01T23:51:39.740Z,4.11
2023-01-01T23:54:07.935Z,3.99
2023-01-01T23:56:35.725Z,4.97
2023-01-01T23:59:04.845Z,3.87
